Página principal
METAR-TAF:

METAR-TAF

Aeroportos :

Honiara, Guadalcanal, Ilhas Salomão

Aeroporto Internacional de Honiara

latitude: 09-25S, longitude: 160-03E, altura: 8 m

Observação actual do tempo

O boletim foi feito há 4 horas e 46 minutos, às 00:00 UTC
Vento 8 kt de nor-nordeste
Temperatura 31°C
Humidade 66%
Pressão 1009 hPa
Visibilidade 10 km ou mais
Poucas nuvensa uma altura de 2000 ft

METAR: AGGH 220000Z 02008KT 9999 FEW020 31/24 Q1009

Hora: 15:46 (04:46 UTC)

Previsão

O boletim foi feito há 5 horas e 36 minutos, às 23:10 UTC
Previsão válida de 22 às 00 UTC a 22 às 24 UTC
Vento 8 kt de norte
Visibilidade 10 km ou mais
Nuvens dispersasa uma altura de 2000 ft
A partir de 22 às 0700 UTC
Vento 3 kt com direcção variável
Visibilidade: 1008 m
Poucas nuvensa uma altura de 1800 ft
Nuvens dispersasa uma altura de 3000 ft

TAF: AGGH 212310Z 2200/2224 36008KT 9999 SCT020 FM220700 VRB03KT 9999 FEW018 SCT030 T 31 32 30 28 Q 1009 1007 1006 1008

Observações e previsões do tempo de mais de 4000 aeroportos (mensagens METAR e TAF).

As estações disponíveis são os pontos amarelos e vermelhos sobre o mapa.

Mova o rato sobre o mapa para ver o nome da estação.

Depois clique no ponto para visualizar as observações e previsões meteorológicas.

Para alterar o mapa : clique nos botões verdes com uma cruz preta para aumentar o zoom; no botão verde com uma pitada de zoom; ou nas setas verdes para mapas adjacentes.


METAR-TAF: